Time;durP1;ratioP1;P1;durP2;ratioP2;P2;SDS_P1;SDS_P2;PMS_P1;PMS_P2;Temp;Humidity;BMP_temperature;BMP_pressure;BME280_temperature;BME280_humidity;BME280_pressure;Samples;Min_cycle;Max_cycle;Signal;HPM_P1;HPM_P2
2023/05/25 00:01:53;;;;;;;16.90;12.02;;;10.00;99.90;;;;;;5041263;28;20213;-83
2023/05/25 00:04:25;;;;;;;14.77;10.18;;;10.10;99.90;;;;;;5042939;28;20310;-83
2023/05/25 00:06:53;;;;;;;13.15;11.85;;;9.90;99.90;;;;;;5047380;28;20207;-81
2023/05/25 00:09:20;;;;;;;18.17;12.63;;;9.80;99.90;;;;;;5047799;28;20447;-84
2023/05/25 00:11:47;;;;;;;25.05;12.15;;;9.80;99.90;;;;;;5047111;28;20318;-83
2023/05/25 00:14:15;;;;;;;18.80;12.18;;;9.80;99.90;;;;;;5054659;28;20199;-86
2023/05/25 00:16:44;;;;;;;16.30;12.90;;;9.80;99.90;;;;;;5034301;28;20201;-81
2023/05/25 00:19:13;;;;;;;21.75;12.30;;;9.70;99.90;;;;;;5048970;28;20205;-82
2023/05/25 00:21:48;;;;;;;19.88;12.88;;;9.70;99.90;;;;;;5041040;28;20189;-82
2023/05/25 00:24:16;;;;;;;16.90;12.50;;;9.60;99.90;;;;;;5028566;28;20207;-81
2023/05/25 00:26:46;;;;;;;18.13;11.85;;;9.50;99.90;;;;;;5035400;28;20268;-82
2023/05/25 00:29:13;;;;;;;26.90;14.30;;;9.50;99.90;;;;;;5031684;28;20372;-85
2023/05/25 00:31:41;;;;;;;21.45;12.68;;;9.50;99.90;;;;;;5027403;28;20303;-83
2023/05/25 00:34:13;;;;;;;18.38;11.70;;;9.50;99.90;;;;;;5035560;28;20203;-80
2023/05/25 00:36:42;;;;;;;18.52;12.88;;;9.40;99.90;;;;;;5032944;28;20744;-81
2023/05/25 00:39:09;;;;;;;17.35;12.57;;;9.40;99.90;;;;;;5041407;28;20217;-84
2023/05/25 00:41:41;;;;;;;20.02;14.48;;;9.40;99.90;;;;;;5035967;28;20204;-83
2023/05/25 00:44:08;;;;;;;17.60;12.80;;;9.40;99.90;;;;;;5036987;28;20215;-84
2023/05/25 00:46:42;;;;;;;21.70;14.20;;;9.50;99.90;;;;;;5041389;28;20192;-83
2023/05/25 00:49:12;;;;;;;21.95;15.02;;;9.40;99.90;;;;;;5044326;28;20212;-86
2023/05/25 00:51:41;;;;;;;14.25;12.85;;;9.50;99.90;;;;;;5029127;28;20220;-83
2023/05/25 00:54:13;;;;;;;20.33;12.43;;;9.60;99.90;;;;;;5032797;28;20331;-84
2023/05/25 00:56:45;;;;;;;17.55;14.20;;;9.60;99.90;;;;;;5056527;28;20238;-84
2023/05/25 00:59:26;;;;;;;18.20;14.57;;;9.60;99.90;;;;;;5028255;28;20232;-83
2023/05/25 01:01:58;;;;;;;21.17;13.50;;;9.70;99.90;;;;;;5035516;28;20267;-86
2023/05/25 01:04:28;;;;;;;19.63;13.40;;;9.60;99.90;;;;;;5043823;28;20279;-83
2023/05/25 01:06:57;;;;;;;20.27;13.73;;;9.50;99.90;;;;;;5032033;28;20216;-82
2023/05/25 01:09:25;;;;;;;18.73;13.63;;;9.50;99.90;;;;;;5034570;28;20215;-84
2023/05/25 01:11:55;;;;;;;21.75;13.50;;;9.60;99.90;;;;;;5042593;28;20232;-86
2023/05/25 01:14:24;;;;;;;19.23;14.88;;;9.60;99.90;;;;;;5055908;28;20211;-81
2023/05/25 01:16:52;;;;;;;16.23;13.57;;;9.60;99.90;;;;;;5031460;28;20509;-83
2023/05/25 01:19:20;;;;;;;21.63;14.80;;;9.40;99.90;;;;;;5040710;28;20477;-83
2023/05/25 01:21:58;;;;;;;22.77;14.85;;;9.30;99.90;;;;;;5039798;28;20538;-88
2023/05/25 01:24:44;;;;;;;14.38;12.82;;;9.30;99.90;;;;;;5039225;28;20433;-85
2023/05/25 01:27:38;;;;;;;26.25;14.45;;;9.50;99.90;;;;;;5051416;28;20204;-87
2023/05/25 01:30:11;;;;;;;19.52;13.40;;;9.40;99.90;;;;;;5035903;28;20535;-84
2023/05/25 01:32:40;;;;;;;15.90;12.73;;;9.50;99.90;;;;;;5049066;28;20466;-83
2023/05/25 01:35:10;;;;;;;20.88;15.57;;;9.60;99.90;;;;;;5035065;28;20319;-87
2023/05/25 01:37:44;;;;;;;15.70;13.52;;;9.50;99.90;;;;;;5033337;28;20209;-82
2023/05/25 01:40:18;;;;;;;14.65;13.00;;;9.50;99.90;;;;;;5033300;28;20354;-84
2023/05/25 01:42:46;;;;;;;21.58;14.45;;;9.50;99.90;;;;;;5033016;28;20197;-82
2023/05/25 01:45:13;;;;;;;27.80;16.50;;;9.40;99.90;;;;;;5045178;28;20212;-82
2023/05/25 01:47:59;;;;;;;21.85;15.90;;;9.40;99.90;;;;;;5037277;28;20219;-86
2023/05/25 01:50:32;;;;;;;17.88;13.93;;;9.40;99.90;;;;;;5031639;28;20250;-82
2023/05/25 01:53:05;;;;;;;19.02;14.80;;;9.40;99.90;;;;;;5042402;28;20204;-83
2023/05/25 01:55:38;;;;;;;23.17;15.95;;;9.30;99.90;;;;;;5037380;28;20213;-84
2023/05/25 01:58:09;;;;;;;25.83;16.23;;;9.30;99.90;;;;;;5031271;28;20201;-83
2023/05/25 02:00:40;;;;;;;24.83;17.08;;;9.20;99.90;;;;;;5039712;28;20197;-84
2023/05/25 02:03:09;;;;;;;19.98;16.60;;;9.20;99.90;;;;;;5030715;28;20213;-85
2023/05/25 02:05:40;;;;;;;22.95;16.10;;;9.30;99.90;;;;;;5030826;28;20206;-84
2023/05/25 02:08:10;;;;;;;24.17;16.08;;;9.20;99.90;;;;;;5042542;28;20236;-83
2023/05/25 02:10:39;;;;;;;19.73;16.70;;;9.10;99.90;;;;;;5028190;28;20236;-84
2023/05/25 02:13:07;;;;;;;28.80;17.48;;;9.10;99.90;;;;;;5042301;28;20774;-84
2023/05/25 02:15:33;;;;;;;25.25;18.85;;;9.20;99.90;;;;;;5046879;28;20205;-81
2023/05/25 02:18:12;;;;;;;25.15;18.38;;;9.10;99.90;;;;;;5035839;28;20210;-81
2023/05/25 02:20:39;;;;;;;22.17;17.23;;;9.00;99.90;;;;;;5039008;28;20201;-81
2023/05/25 02:23:08;;;;;;;24.63;18.25;;;9.10;99.90;;;;;;5045220;28;20484;-81
2023/05/25 02:25:38;;;;;;;29.60;17.63;;;9.10;99.90;;;;;;5036631;28;20193;-80
2023/05/25 02:28:06;;;;;;;24.67;17.88;;;9.10;99.90;;;;;;5027037;28;20201;-79
2023/05/25 02:30:35;;;;;;;26.02;17.65;;;9.10;99.90;;;;;;5052782;28;20212;-80
2023/05/25 02:33:05;;;;;;;20.35;15.55;;;9.00;99.90;;;;;;5025729;28;20201;-81
2023/05/25 02:35:33;;;;;;;27.73;16.38;;;9.00;99.90;;;;;;5040694;28;20200;-84
2023/05/25 02:38:00;;;;;;;26.15;17.35;;;9.00;99.90;;;;;;5052190;28;20213;-83
2023/05/25 02:40:28;;;;;;;25.55;20.35;;;9.10;99.90;;;;;;5040411;28;20303;-84
2023/05/25 02:42:57;;;;;;;24.35;17.35;;;9.10;99.90;;;;;;5037218;28;20295;-83
2023/05/25 02:45:26;;;;;;;20.00;16.73;;;9.10;99.90;;;;;;5039182;28;20220;-82
2023/05/25 02:47:55;;;;;;;22.92;16.92;;;8.90;99.90;;;;;;5031198;28;20209;-80
2023/05/25 02:50:25;;;;;;;27.05;18.02;;;9.00;99.90;;;;;;5028343;28;20213;-84
2023/05/25 02:52:53;;;;;;;38.38;17.92;;;9.00;99.90;;;;;;5033580;28;20272;-84
2023/05/25 02:55:21;;;;;;;24.83;16.90;;;9.00;99.90;;;;;;5039841;28;20208;-86
2023/05/25 02:57:49;;;;;;;23.13;16.20;;;8.90;99.90;;;;;;5035390;28;20205;-83
2023/05/25 03:00:16;;;;;;;19.02;16.65;;;8.90;99.90;;;;;;5037094;28;20223;-84
2023/05/25 03:02:47;;;;;;;22.08;16.95;;;8.90;99.90;;;;;;5038199;28;20207;-83
2023/05/25 03:05:15;;;;;;;21.30;16.90;;;8.80;99.90;;;;;;5037271;28;20205;-84
2023/05/25 03:07:43;;;;;;;22.02;15.93;;;9.00;99.90;;;;;;5031308;28;20236;-84
2023/05/25 03:10:14;;;;;;;27.45;17.40;;;9.10;99.90;;;;;;5050260;28;20204;-81
2023/05/25 03:12:41;;;;;;;24.00;17.00;;;9.30;99.90;;;;;;5029025;28;20217;-83
2023/05/25 03:15:11;;;;;;;28.60;16.27;;;9.30;99.90;;;;;;5021613;28;20213;-85
2023/05/25 03:17:39;;;;;;;29.98;18.38;;;9.40;99.90;;;;;;5029510;28;20592;-83
2023/05/25 03:20:09;;;;;;;25.90;16.80;;;9.50;99.90;;;;;;5035418;28;20212;-85
2023/05/25 03:22:37;;;;;;;26.25;17.23;;;9.80;99.90;;;;;;5038750;28;20216;-85
2023/05/25 03:25:05;;;;;;;20.58;14.45;;;10.10;99.90;;;;;;5036243;28;20219;-85
2023/05/25 03:27:32;;;;;;;22.05;15.18;;;10.20;99.90;;;;;;5032311;28;20276;-86
2023/05/25 03:30:00;;;;;;;21.65;14.38;;;10.10;99.90;;;;;;5056215;28;20204;-83
2023/05/25 03:32:28;;;;;;;18.23;14.75;;;10.20;99.90;;;;;;5036741;28;20240;-80
2023/05/25 03:34:55;;;;;;;20.00;13.85;;;10.40;99.90;;;;;;5040703;28;20196;-84
2023/05/25 03:37:22;;;;;;;27.23;16.10;;;10.20;99.90;;;;;;5029922;28;20263;-82
2023/05/25 03:39:55;;;;;;;18.85;14.32;;;10.10;99.90;;;;;;5040434;28;20310;-82
2023/05/25 03:42:23;;;;;;;21.35;13.93;;;10.10;99.90;;;;;;5030235;28;20705;-82
2023/05/25 03:44:50;;;;;;;22.88;15.63;;;10.30;99.90;;;;;;5032191;28;20263;-85
2023/05/25 03:47:19;;;;;;;27.48;16.15;;;10.30;99.90;;;;;;5028385;28;20501;-83
2023/05/25 03:49:46;;;;;;;27.85;16.83;;;10.40;99.90;;;;;;5029798;28;20201;-84
2023/05/25 03:52:13;;;;;;;26.85;16.85;;;10.60;99.90;;;;;;5039249;28;20216;-85
2023/05/25 03:54:41;;;;;;;24.17;17.50;;;10.50;99.90;;;;;;5043219;28;20232;-84
2023/05/25 03:57:08;;;;;;;18.92;16.40;;;10.50;99.90;;;;;;5049288;28;20188;-86
2023/05/25 03:59:36;;;;;;;23.45;18.15;;;10.50;99.90;;;;;;5054081;28;20244;-88
2023/05/25 04:02:05;;;;;;;21.40;18.30;;;10.90;99.90;;;;;;5047099;28;20228;-84
2023/05/25 04:04:32;;;;;;;18.85;16.30;;;11.20;99.90;;;;;;5045051;28;20211;-88
2023/05/25 04:07:01;;;;;;;18.05;14.20;;;11.30;99.90;;;;;;5040269;28;20254;-82
2023/05/25 04:09:28;;;;;;;19.50;14.43;;;11.50;99.90;;;;;;5034012;28;20215;-84
2023/05/25 04:11:57;;;;;;;20.13;13.10;;;11.30;99.90;;;;;;5034815;28;20230;-86
2023/05/25 04:14:24;;;;;;;19.70;12.95;;;11.20;99.90;;;;;;5038419;28;20707;-84
2023/05/25 04:16:52;;;;;;;16.00;12.73;;;11.20;99.90;;;;;;5049140;28;20231;-86
2023/05/25 04:19:19;;;;;;;16.55;13.10;;;11.20;99.90;;;;;;5052722;28;20212;-81
2023/05/25 04:21:48;;;;;;;24.35;12.65;;;11.30;99.90;;;;;;5031687;28;20213;-88
2023/05/25 04:24:18;;;;;;;15.73;12.55;;;11.20;99.90;;;;;;5031764;28;20203;-88
2023/05/25 04:26:46;;;;;;;13.85;10.27;;;11.10;99.90;;;;;;5033281;28;20219;-84
2023/05/25 04:29:16;;;;;;;26.15;14.88;;;11.10;99.90;;;;;;5040496;28;20243;-86
2023/05/25 04:31:44;;;;;;;16.00;10.95;;;10.90;99.90;;;;;;5050153;28;20239;-80
2023/05/25 04:34:15;;;;;;;12.07;10.77;;;11.00;99.90;;;;;;5033035;28;20544;-84
2023/05/25 04:36:43;;;;;;;14.18;11.60;;;11.00;99.90;;;;;;5037690;28;20211;-87
2023/05/25 04:39:14;;;;;;;18.95;13.50;;;11.20;99.90;;;;;;5039176;28;20204;-84
2023/05/25 04:41:43;;;;;;;15.45;10.20;;;11.30;99.90;;;;;;5030196;28;20200;-82
2023/05/25 04:44:12;;;;;;;15.48;12.13;;;11.20;99.90;;;;;;5034210;28;20213;-83
2023/05/25 04:46:39;;;;;;;15.48;10.85;;;11.40;99.90;;;;;;5027818;28;20219;-84
2023/05/25 04:49:09;;;;;;;15.13;11.05;;;11.20;99.90;;;;;;5040083;28;20209;-83
2023/05/25 04:51:36;;;;;;;13.13;11.70;;;11.30;99.90;;;;;;5036510;28;20232;-83
2023/05/25 04:54:08;;;;;;;19.90;10.88;;;11.40;99.90;;;;;;5035235;28;20269;-85
2023/05/25 04:56:35;;;;;;;20.70;12.95;;;11.40;99.90;;;;;;5042065;28;20224;-83
2023/05/25 04:59:06;;;;;;;19.50;12.30;;;11.40;99.90;;;;;;5055898;28;20205;-85
2023/05/25 05:01:39;;;;;;;15.32;9.65;;;11.50;99.90;;;;;;5040830;28;20215;-87
2023/05/25 05:04:08;;;;;;;18.13;11.57;;;11.90;99.90;;;;;;5041714;28;20268;-87
2023/05/25 05:06:35;;;;;;;21.65;11.48;;;12.00;99.90;;;;;;5034277;28;20188;-86
2023/05/25 05:09:04;;;;;;;17.40;10.98;;;12.10;99.90;;;;;;5030655;28;20209;-88
2023/05/25 05:11:31;;;;;;;16.15;10.73;;;12.10;99.90;;;;;;5031628;28;20303;-84
2023/05/25 05:13:59;;;;;;;17.13;10.27;;;12.10;99.90;;;;;;5054778;28;20204;-85
2023/05/25 05:16:25;;;;;;;17.13;10.48;;;12.00;99.90;;;;;;5071457;28;20212;-85
2023/05/25 05:18:53;;;;;;;15.32;10.48;;;12.30;99.90;;;;;;5060158;28;20191;-86
2023/05/25 05:21:19;;;;;;;14.95;10.73;;;12.20;99.90;;;;;;5055727;28;20275;-88
2023/05/25 05:23:49;;;;;;;22.75;12.07;;;12.40;99.90;;;;;;5051248;28;20205;-85
2023/05/25 05:26:15;;;;;;;15.75;10.77;;;12.50;99.90;;;;;;5036102;28;20479;-87
2023/05/25 05:28:43;;;;;;;15.20;10.45;;;12.50;99.90;;;;;;5056117;28;20216;-86
2023/05/25 05:31:10;;;;;;;16.70;10.35;;;12.50;99.90;;;;;;5036965;28;20220;-85
2023/05/25 05:33:38;;;;;;;16.73;9.23;;;12.40;99.90;;;;;;5057676;28;20215;-86
2023/05/25 05:36:05;;;;;;;15.45;10.75;;;12.50;99.90;;;;;;5035062;28;20205;-86
2023/05/25 05:38:32;;;;;;;19.63;12.77;;;12.40;99.90;;;;;;5059073;28;20250;-82
2023/05/25 05:41:01;;;;;;;21.52;11.73;;;12.40;99.90;;;;;;5052244;28;20204;-90
2023/05/25 05:43:28;;;;;;;19.45;11.38;;;12.60;99.90;;;;;;5047950;28;20280;-87
2023/05/25 05:45:56;;;;;;;19.45;10.98;;;12.70;99.90;;;;;;5058776;28;20409;-90
2023/05/25 05:48:23;;;;;;;15.07;10.50;;;12.60;99.90;;;;;;5046197;28;20280;-87
2023/05/25 05:50:51;;;;;;;18.45;10.75;;;12.70;99.90;;;;;;5082788;22;20193;-86
2023/05/25 05:53:18;;;;;;;16.38;12.45;;;12.80;99.90;;;;;;5110466;22;20336;-87
2023/05/25 05:55:45;;;;;;;12.15;9.05;;;12.70;99.90;;;;;;5046567;28;20231;-82
2023/05/25 05:58:15;;;;;;;15.52;9.50;;;13.00;99.90;;;;;;5043116;28;20200;-86
2023/05/25 06:00:42;;;;;;;12.68;9.75;;;12.90;99.90;;;;;;5058420;28;20291;-86
2023/05/25 06:03:09;;;;;;;13.50;9.80;;;13.10;99.90;;;;;;5052104;28;20207;-84
2023/05/25 06:05:36;;;;;;;19.98;10.30;;;13.50;99.90;;;;;;5026836;28;20196;-82
2023/05/25 06:08:03;;;;;;;14.88;9.32;;;13.60;99.90;;;;;;5047878;28;20508;-88
2023/05/25 06:10:31;;;;;;;19.15;10.35;;;13.70;99.90;;;;;;5048275;28;20528;-88
2023/05/25 06:12:58;;;;;;;11.02;9.77;;;13.90;99.90;;;;;;5043281;28;20643;-85
2023/05/25 06:15:25;;;;;;;10.90;9.60;;;14.00;99.90;;;;;;5042911;28;20228;-83
2023/05/25 06:17:52;;;;;;;13.02;9.02;;;14.30;99.90;;;;;;5042256;28;20207;-87
2023/05/25 06:20:20;;;;;;;11.35;9.90;;;14.30;99.90;;;;;;5044217;28;20208;-85
2023/05/25 06:22:47;;;;;;;13.02;8.98;;;14.50;99.90;;;;;;5044600;28;20204;-87
2023/05/25 06:25:15;;;;;;;11.65;9.77;;;14.70;99.90;;;;;;5052506;28;20210;-87
2023/05/25 06:27:42;;;;;;;14.52;9.07;;;14.90;99.90;;;;;;5045661;28;20215;-84
2023/05/25 06:30:09;;;;;;;11.95;7.65;;;14.80;99.90;;;;;;5049123;28;20606;-85
2023/05/25 06:32:37;;;;;;;11.98;7.50;;;15.00;99.90;;;;;;5048901;28;20295;-87
2023/05/25 06:35:04;;;;;;;15.30;9.40;;;15.00;99.90;;;;;;5056202;28;20220;-84
2023/05/25 06:37:37;;;;;;;10.20;9.13;;;15.30;99.90;;;;;;5044533;28;20231;-86
2023/05/25 06:40:04;;;;;;;19.13;8.85;;;15.30;99.90;;;;;;5045402;28;20228;-82
2023/05/25 06:42:31;;;;;;;11.50;7.40;;;15.20;99.90;;;;;;5053309;28;20256;-85
2023/05/25 06:44:58;;;;;;;15.17;8.50;;;15.40;99.90;;;;;;5055905;28;20196;-85
2023/05/25 06:47:25;;;;;;;14.27;8.93;;;15.70;99.90;;;;;;5061684;28;20425;-83
2023/05/25 06:49:55;;;;;;;14.53;10.77;;;15.90;99.90;;;;;;5047753;28;20451;-85
2023/05/25 06:52:22;;;;;;;13.87;9.50;;;16.00;99.90;;;;;;5045252;28;20474;-87
2023/05/25 06:54:49;;;;;;;15.57;9.27;;;15.80;99.90;;;;;;5042872;28;20450;-87
2023/05/25 06:57:15;;;;;;;10.50;8.00;;;15.80;99.90;;;;;;5043223;28;20410;-88
2023/05/25 06:59:43;;;;;;;8.90;8.00;;;15.60;99.90;;;;;;5049652;28;20461;-84
2023/05/25 07:02:09;;;;;;;15.27;7.40;;;15.70;99.90;;;;;;5045583;28;20436;-84
2023/05/25 07:04:37;;;;;;;15.90;7.70;;;16.00;99.90;;;;;;5034835;28;20462;-84
2023/05/25 07:07:05;;;;;;;10.17;8.90;;;16.20;99.90;;;;;;5048582;28;20450;-86
2023/05/25 07:09:31;;;;;;;10.10;8.30;;;16.30;99.90;;;;;;5046426;28;20439;-83
2023/05/25 07:11:59;;;;;;;12.90;8.07;;;16.40;99.90;;;;;;5040992;28;20459;-87
2023/05/25 07:14:25;;;;;;;10.37;8.80;;;16.60;99.90;;;;;;5045978;28;20425;-85
2023/05/25 07:16:52;;;;;;;10.30;7.73;;;16.40;99.90;;;;;;5048335;28;20447;-82
2023/05/25 07:19:20;;;;;;;10.07;7.10;;;16.40;99.90;;;;;;5047332;28;20474;-84
2023/05/25 07:21:48;;;;;;;11.70;8.33;;;16.50;99.90;;;;;;5028892;28;20641;-87
2023/05/25 07:24:17;;;;;;;8.87;7.20;;;16.30;99.90;;;;;;5046122;28;20647;-89
2023/05/25 07:26:44;;;;;;;12.77;8.70;;;16.30;99.90;;;;;;5041577;28;20450;-84
2023/05/25 07:29:11;;;;;;;14.43;8.87;;;16.60;99.90;;;;;;5044933;28;20420;-83
2023/05/25 07:31:39;;;;;;;15.00;9.87;;;16.70;99.90;;;;;;5050277;28;20446;-84
2023/05/25 07:34:06;;;;;;;10.23;7.93;;;16.70;99.90;;;;;;5043198;28;20627;-83
2023/05/25 07:36:33;;;;;;;15.47;9.70;;;16.80;99.90;;;;;;5042072;28;20767;-88
2023/05/25 07:39:00;;;;;;;11.47;8.00;;;16.70;99.90;;;;;;5051622;28;21035;-86
2023/05/25 07:41:27;;;;;;;12.73;8.10;;;17.00;99.90;;;;;;5042319;28;20629;-88
2023/05/25 07:43:54;;;;;;;10.83;7.80;;;16.90;99.90;;;;;;5043666;28;20782;-88
2023/05/25 07:46:23;;;;;;;10.03;8.83;;;16.90;99.90;;;;;;5048100;28;20427;-84
2023/05/25 07:48:51;;;;;;;13.97;8.17;;;17.00;99.90;;;;;;5055500;28;20432;-86
2023/05/25 07:51:18;;;;;;;11.03;6.90;;;17.30;99.90;;;;;;5055816;28;20442;-88
2023/05/25 07:53:44;;;;;;;13.30;7.37;;;17.30;99.90;;;;;;5061463;28;20483;-84
2023/05/25 07:56:12;;;;;;;10.17;7.30;;;17.40;99.90;;;;;;5065392;28;20417;-87
2023/05/25 07:58:39;;;;;;;11.07;8.47;;;17.70;99.90;;;;;;5049411;28;20762;-88
2023/05/25 08:01:06;;;;;;;19.33;10.87;;;17.80;99.90;;;;;;5044097;28;20510;-86
2023/05/25 08:03:33;;;;;;;10.77;8.73;;;17.90;99.90;;;;;;5043682;28;20471;-85
2023/05/25 08:06:15;;;;;;;11.13;6.97;;;18.00;99.90;;;;;;5033907;28;20411;-88
2023/05/25 08:08:43;;;;;;;12.23;8.07;;;18.20;99.90;;;;;;5041838;28;20653;-87
2023/05/25 08:11:10;;;;;;;11.57;7.80;;;17.90;99.90;;;;;;5026154;28;20415;-87
2023/05/25 08:13:40;;;;;;;13.00;8.97;;;17.70;99.90;;;;;;5046425;28;20467;-85
2023/05/25 08:16:07;;;;;;;10.47;8.90;;;18.00;99.90;;;;;;5049745;28;20418;-86
2023/05/25 08:18:35;;;;;;;11.20;6.57;;;17.90;99.90;;;;;;5056468;28;20435;-85
2023/05/25 08:21:02;;;;;;;11.07;6.50;;;18.00;99.90;;;;;;5058066;28;20419;-86
2023/05/25 08:23:29;;;;;;;11.90;7.27;;;18.00;99.90;;;;;;5056162;28;20444;-86
2023/05/25 08:25:56;;;;;;;7.83;6.40;;;18.30;99.90;;;;;;5052477;28;20526;-87
2023/05/25 08:28:23;;;;;;;11.23;7.57;;;18.40;99.90;;;;;;5043807;28;20430;-87
2023/05/25 08:30:50;;;;;;;9.73;6.27;;;18.60;99.90;;;;;;5042874;28;20423;-85
2023/05/25 08:33:17;;;;;;;8.67;5.90;;;18.80;99.90;;;;;;5049887;28;20878;-84
2023/05/25 08:35:44;;;;;;;8.70;6.00;;;18.80;99.90;;;;;;5028836;28;20423;-81
2023/05/25 08:38:11;;;;;;;8.57;6.17;;;18.60;99.90;;;;;;5056415;28;20416;-82
2023/05/25 08:40:42;;;;;;;11.23;6.23;;;18.50;99.90;;;;;;5055934;28;20422;-86
2023/05/25 08:43:09;;;;;;;8.47;6.43;;;18.70;99.90;;;;;;5055922;28;20462;-85
2023/05/25 08:45:36;;;;;;;7.80;5.60;;;18.60;99.90;;;;;;5050172;28;20437;-86
2023/05/25 08:48:16;;;;;;;10.10;5.77;;;18.50;99.90;;;;;;5019759;28;20441;-89
2023/05/25 08:51:07;;;;;;;11.87;7.27;;;18.70;99.90;;;;;;5041864;28;20434;-86
2023/05/25 08:53:39;;;;;;;7.70;5.90;;;18.30;99.90;;;;;;5044602;28;20475;-88
2023/05/25 08:56:12;;;;;;;15.93;6.33;;;18.20;99.90;;;;;;5038613;28;20409;-83
2023/05/25 08:58:45;;;;;;;8.00;7.20;;;18.60;99.90;;;;;;5045335;28;20440;-87
2023/05/25 09:01:17;;;;;;;8.30;7.40;;;18.90;99.90;;;;;;5039860;28;20426;-85
2023/05/25 09:03:45;;;;;;;13.27;7.40;;;18.80;99.90;;;;;;5044309;28;20505;-87
2023/05/25 09:06:13;;;;;;;12.17;8.07;;;18.50;99.90;;;;;;5033611;28;20445;-83
2023/05/25 09:08:40;;;;;;;9.40;6.67;;;18.50;99.90;;;;;;5058100;28;20456;-86
2023/05/25 09:11:08;;;;;;;13.87;8.30;;;18.70;99.90;;;;;;5055830;28;20450;-85
2023/05/25 09:13:36;;;;;;;9.50;7.10;;;19.10;99.90;;;;;;5045795;28;20643;-86
2023/05/25 09:16:03;;;;;;;8.43;6.53;;;19.00;99.90;;;;;;5042694;28;20426;-86
2023/05/25 09:18:32;;;;;;;6.20;5.60;;;19.20;99.90;;;;;;5045428;28;20766;-87
2023/05/25 09:21:00;;;;;;;6.97;6.27;;;19.30;99.90;;;;;;5049178;28;20918;-87
2023/05/25 09:23:28;;;;;;;9.07;7.13;;;19.50;99.90;;;;;;5040358;28;20424;-85
2023/05/25 09:25:56;;;;;;;7.63;6.17;;;19.50;99.90;;;;;;5050816;28;20416;-85
2023/05/25 09:28:23;;;;;;;8.20;6.43;;;19.20;99.90;;;;;;5044754;28;20459;-80
2023/05/25 09:30:53;;;;;;;7.50;6.37;;;19.20;99.90;;;;;;5043395;28;20419;-85
2023/05/25 09:33:21;;;;;;;7.33;6.63;;;19.10;99.90;;;;;;5044526;28;20521;-82
2023/05/25 09:35:48;;;;;;;13.30;6.60;;;18.80;99.90;;;;;;5045407;28;20417;-85
2023/05/25 09:38:15;;;;;;;8.33;7.63;;;19.00;99.90;;;;;;5050961;28;20420;-86
2023/05/25 09:40:43;;;;;;;7.87;5.97;;;19.40;99.90;;;;;;5044996;28;20415;-81
2023/05/25 09:43:12;;;;;;;8.20;7.60;;;19.50;99.90;;;;;;5060560;28;20417;-84
2023/05/25 09:45:54;;;;;;;7.97;5.90;;;19.80;99.90;;;;;;5051999;28;20424;-83
2023/05/25 09:48:21;;;;;;;13.07;6.87;;;20.00;99.90;;;;;;5054742;28;20433;-84
2023/05/25 09:50:50;;;;;;;8.43;6.37;;;20.60;99.90;;;;;;5056027;28;20667;-86
2023/05/25 09:53:17;;;;;;;7.00;6.20;;;20.90;99.90;;;;;;5052868;28;20464;-82
2023/05/25 09:55:48;;;;;;;7.00;6.30;;;20.70;99.90;;;;;;5035460;28;20449;-84
2023/05/25 09:58:22;;;;;;;5.97;5.33;;;20.90;99.90;;;;;;5048129;28;20447;-82
2023/05/25 10:00:53;;;;;;;7.73;6.63;;;21.10;99.90;;;;;;5047076;28;20420;-87
2023/05/25 10:03:20;;;;;;;12.30;5.80;;;21.10;99.90;;;;;;5040523;28;20695;-82
2023/05/25 10:05:47;;;;;;;8.93;5.70;;;21.00;99.90;;;;;;5068537;28;20461;-85
2023/05/25 10:08:18;;;;;;;6.90;6.30;;;21.20;99.90;;;;;;5042198;28;20448;-80
2023/05/25 10:10:48;;;;;;;5.87;5.30;;;21.60;99.90;;;;;;5046226;28;20415;-81
2023/05/25 10:13:20;;;;;;;5.50;5.00;;;21.00;99.90;;;;;;5047017;28;20473;-88
2023/05/25 10:15:52;;;;;;;6.77;5.67;;;21.00;99.90;;;;;;5025569;28;20416;-84
2023/05/25 10:18:24;;;;;;;5.40;4.57;;;21.10;99.90;;;;;;5046423;28;20458;-83
2023/05/25 10:21:03;;;;;;;5.83;5.00;;;21.80;99.90;;;;;;5039166;28;20660;-84
2023/05/25 10:23:36;;;;;;;6.70;4.47;;;22.20;99.90;;;;;;5044876;28;20451;-84
2023/05/25 10:26:05;;;;;;;7.30;5.07;;;21.40;99.90;;;;;;5057140;28;20419;-86
2023/05/25 10:28:38;;;;;;;8.20;4.80;;;21.60;99.90;;;;;;5043637;28;20483;-85
2023/05/25 10:31:05;;;;;;;7.27;5.00;;;21.50;99.90;;;;;;5033391;28;20808;-85
2023/05/25 10:33:33;;;;;;;7.57;5.10;;;21.50;99.90;;;;;;5040179;28;20487;-82
2023/05/25 10:36:02;;;;;;;6.60;4.73;;;22.00;99.90;;;;;;5046871;28;20499;-86
2023/05/25 10:38:43;;;;;;;6.60;6.00;;;22.20;99.90;;;;;;5043418;28;20434;-82
2023/05/25 10:41:10;;;;;;;6.33;5.27;;;21.90;99.90;;;;;;5031963;28;20683;-85
2023/05/25 10:43:39;;;;;;;5.90;5.40;;;21.80;99.90;;;;;;5049135;28;20653;-82
2023/05/25 10:46:07;;;;;;;8.07;4.70;;;22.00;99.90;;;;;;5036675;28;20837;-82
2023/05/25 10:48:38;;;;;;;5.03;4.50;;;21.00;99.90;;;;;;5040583;28;20513;-86
2023/05/25 10:51:06;;;;;;;6.50;5.80;;;20.10;99.90;;;;;;5041726;28;20503;-83
2023/05/25 10:53:36;;;;;;;8.47;5.53;;;20.50;99.90;;;;;;5049666;28;20474;-87
2023/05/25 10:56:06;;;;;;;11.53;5.20;;;21.20;99.90;;;;;;5050311;28;20425;-86
2023/05/25 10:58:33;;;;;;;7.17;6.10;;;21.40;99.90;;;;;;5038623;28;20449;-81
2023/05/25 11:01:07;;;;;;;9.90;4.73;;;21.50;99.90;;;;;;5038051;28;20440;-85
2023/05/25 11:03:43;;;;;;;6.37;5.03;;;21.80;99.90;;;;;;5037071;28;20416;-84
2023/05/25 11:06:14;;;;;;;6.33;4.70;;;22.00;99.90;;;;;;5046111;28;20491;-82
2023/05/25 11:09:21;;;;;;;5.73;5.23;;;21.90;99.90;;;;;;5038608;28;20423;-83
2023/05/25 11:11:49;;;;;;;8.80;5.37;;;22.00;99.90;;;;;;5037465;28;20458;-84
2023/05/25 11:14:30;;;;;;;5.90;5.30;;;22.40;99.90;;;;;;5038017;28;20497;-85
2023/05/25 11:17:12;;;;;;;8.33;4.93;;;22.70;99.90;;;;;;5020944;28;20412;-82
2023/05/25 11:19:50;;;;;;;6.80;5.73;;;22.90;99.90;;;;;;5029996;28;20537;-83
2023/05/25 11:22:22;;;;;;;9.20;4.87;;;22.50;99.90;;;;;;5038212;28;20484;-85
2023/05/25 11:24:52;;;;;;;6.33;5.23;;;22.00;99.90;;;;;;5040186;28;20723;-83
2023/05/25 11:27:23;;;;;;;7.23;5.27;;;21.70;99.90;;;;;;5042846;28;20596;-85
2023/05/25 11:29:53;;;;;;;8.00;5.03;;;21.80;99.90;;;;;;5040216;28;20444;-88
2023/05/25 11:32:27;;;;;;;6.90;4.87;;;21.70;99.90;;;;;;5024876;28;20476;-88
2023/05/25 11:35:08;;;;;;;5.27;4.87;;;22.00;99.90;;;;;;5043350;28;20459;-82
2023/05/25 11:37:36;;;;;;;6.27;5.67;;;22.00;99.90;;;;;;5050481;28;20434;-84
2023/05/25 11:40:06;;;;;;;4.80;4.40;;;22.00;99.90;;;;;;5047307;28;20441;-83
2023/05/25 11:42:33;;;;;;;8.50;5.20;;;21.90;99.90;;;;;;5040451;28;20488;-82
2023/05/25 11:45:02;;;;;;;5.90;4.97;;;21.70;99.90;;;;;;5033520;28;20399;-85
2023/05/25 11:47:29;;;;;;;7.73;5.17;;;22.20;99.90;;;;;;5051060;28;20418;-83
2023/05/25 11:50:03;;;;;;;7.83;4.80;;;22.50;99.90;;;;;;5040553;28;20412;-82
2023/05/25 11:52:30;;;;;;;11.20;5.33;;;22.50;99.90;;;;;;5040661;28;20479;-85
2023/05/25 11:54:57;;;;;;;5.50;5.00;;;21.90;99.90;;;;;;5028119;28;20473;-86
2023/05/25 11:57:24;;;;;;;6.60;5.53;;;21.00;99.90;;;;;;5040289;28;20436;-88
2023/05/25 11:59:53;;;;;;;6.43;5.33;;;21.20;99.90;;;;;;5047157;28;20434;-85
2023/05/25 12:02:21;;;;;;;5.70;5.00;;;21.40;99.90;;;;;;5021894;28;20480;-81
2023/05/25 12:04:55;;;;;;;6.37;4.93;;;21.30;99.90;;;;;;5024280;28;20440;-87
2023/05/25 12:07:25;;;;;;;6.37;5.07;;;21.50;99.90;;;;;;5043941;28;20407;-82
2023/05/25 12:10:03;;;;;;;6.07;5.30;;;21.40;99.90;;;;;;5040790;28;20435;-81
2023/05/25 12:12:43;;;;;;;5.37;4.30;;;21.10;99.90;;;;;;5033004;28;20469;-84
2023/05/25 12:15:12;;;;;;;6.13;5.00;;;21.20;99.90;;;;;;5038916;28;20532;-83
2023/05/25 12:17:41;;;;;;;6.90;4.60;;;21.90;99.90;;;;;;5028638;28;20412;-83
2023/05/25 12:20:11;;;;;;;8.27;5.33;;;21.80;99.90;;;;;;5026509;28;20456;-84
2023/05/25 12:22:41;;;;;;;11.00;5.03;;;21.80;99.90;;;;;;5043070;28;20724;-83
2023/05/25 12:25:09;;;;;;;5.40;4.90;;;22.00;99.90;;;;;;5051032;28;20475;-82
2023/05/25 12:27:37;;;;;;;8.17;5.40;;;21.70;99.90;;;;;;5038617;28;20423;-83
2023/05/25 12:30:09;;;;;;;6.07;5.53;;;21.70;99.90;;;;;;5059907;28;20432;-85
2023/05/25 12:33:00;;;;;;;7.40;3.80;;;21.50;99.90;;;;;;5054253;28;20513;-85
2023/05/25 12:35:47;;;;;;;5.60;5.00;;;21.00;99.90;;;;;;5058655;28;20404;-85
2023/05/25 12:38:18;;;;;;;8.60;6.40;;;21.00;99.90;;;;;;5054898;28;20412;-82
2023/05/25 12:40:46;;;;;;;9.90;5.53;;;21.00;99.90;;;;;;5056112;28;20447;-82
2023/05/25 12:43:14;;;;;;;5.73;4.40;;;21.20;99.90;;;;;;5040138;28;20445;-85
2023/05/25 12:45:42;;;;;;;8.20;5.07;;;21.40;99.90;;;;;;5044149;28;20453;-84
2023/05/25 12:48:09;;;;;;;6.60;5.90;;;21.50;99.90;;;;;;5039077;28;20465;-83
2023/05/25 12:50:36;;;;;;;8.40;4.67;;;21.40;99.90;;;;;;5047086;28;20627;-83